KSLR

Sulphur Springs Municipal Airport

Sulphur Springs, Texas, USA
METAR KSLR 150055Z AUTO 00000KT 7SM CLR 31/21 A2991 RMK AO2 T03050205
Observed Flight Rules
Aug-15 @ 00:55 UTC (10 minutes ago) Visual Flight Rules
Visibility Clouds
7 miles
  • Clear skies
Temperatures Readings
Current 31°C / 88°F
Dewpoint 21°C / 70°F
Humidity 55%
Altimeter 29.91" Hg
Pressure 1013 hPa
Elevation 149
METAR KSLR 150055Z AUTO 00000KT 7SM CLR 31/21 A2991 RMK AO2 T03050205
Observed Flight Rules
Aug-15 @ 00:55 UTC
(10 minutes ago)
VFR
Clouds
  • Clear skies
Temperature Dewpoint
31°C / 88°F 21°C / 70°F
Humidity Altimeter Pressure
55% 29.91" Hg 1013 hPa